LGAVLGSR

Guest
Details From LGAV - Athens Intl Airport Elefterios Venizel
To LGSR - SANTORINI
Flight Number -
Tags generated
Created
Modified
Stats Distance 118 nm / 218 km
Max Altitude 4,400 ft / 1,341 m
Waypoints 3
Social Downloads 6
Likes 0
Share

Download

Looking for another format? Having issues loading an existing format? Contact us
Advertisement - Login to hide

Notes

Basic altitude profile: - Ascent Rate: 2500ft/min - Ascent Speed: 250kts - Cruise Altitude: 35000ft - Cruise Speed: 420kts - Descent Rate: 1500ft/min - Descent Speed: 250kts Options: - Use NATs: yes - Use PACOTS: yes - Use low airways: no - Use high airways: yes

Route

LGAV SOKNO LGSR

ID Type Via Altitude (ft/m) Position (lat/lon) Dist (leg/tot) Name
O LGAV APT - 0 / 0 37.93636 / 23.94447 - / 0 nm Athens Intl Airport Elefterios Venizel
SOKNO FIX - 4,400 / 1,341 36.67639 / 25.21806 97 / 97 nm
O LGSR APT - 0 / 0 36.39895 / 25.47851 20 / 117 nm SANTORINI

Altitude Profile

Advertisement - Login to hide

LGAV

Details ICAO LGAV (ATH)
Name Athens "Eleftherios Venizelos"
Region Greece
Timezone Europe/Athens (UTC+2.0)
Stats Elevation 308 ft / 94 m (AMSL)
Location 37.936700° 23.944500°
Runways 2
Magnetic Variation 4.772° E

METAR

LGAV 270820Z 02013KT 9999 FEW030 16/05 Q1022 NOSIG

Decode

TAF

TAF TAF LGAV 270500Z 2706/2806 VRB03KT 9999 FEW030 BECMG 2706/2708 01010KT TEMPO 2706/2715 01010G20KT PROB30 2803/2806 5000 BR FEW008

Decode

Departure Runways

ID Width Length Bearing (true/mag) Surface Threshold Overrun Markings Lighting
03L 151 ft / 46 m 12,478 ft / 3,803 m 36.86° / 32.09° ASPHALT 984 ft / 300 m 394 ft / 120 m PREC-APP CENTERLINE EDGE THRESHOLD ALSF-II TDZ REIL-OMNI
03R 151 ft / 46 m 13,135 ft / 4,004 m 36.87° / 32.10° ASPHALT 984 ft / 300 m 394 ft / 120 m PREC-APP CENTERLINE EDGE THRESHOLD ALSF-II TDZ REIL-OMNI
21L 151 ft / 46 m 13,135 ft / 4,004 m 216.89° / 212.12° ASPHALT 984 ft / 300 m 394 ft / 120 m PREC-APP CENTERLINE EDGE THRESHOLD ALSF-II TDZ REIL-OMNI
21R 151 ft / 46 m 12,478 ft / 3,803 m 216.87° / 212.10° ASPHALT 984 ft / 300 m 394 ft / 120 m PREC-APP CENTERLINE EDGE THRESHOLD ALSF-II TDZ REIL-OMNI

LGSR

Details ICAO LGSR (JTR)
Name Santorini
Region Greece
Timezone Europe/Athens (UTC+2.0)
Stats Elevation 126 ft / 38 m (AMSL)
Location 36.399500° 25.478900°
Runways 1
Magnetic Variation 4.794° E

METAR

LGSR 270750Z 36007KT 9999 FEW025 16/10 Q1020

Decode

TAF

TAF LGSR 270500Z 2706/2806 36013KT 9999 FEW020

Decode

Destination Runways

ID Width Length Bearing (true/mag) Surface Threshold Overrun Markings Lighting
15 98 ft / 30 m 7,218 ft / 2,200 m 159.32° / 154.52° ASPHALT 239 ft / 73 m 679 ft / 207 m PREC-APP EDGE THRESHOLD CALVERT REIL-OMNI
33 98 ft / 30 m 7,218 ft / 2,200 m 339.32° / 334.53° ASPHALT 0 ft / 0 m 0 ft / 0 m PREC-APP EDGE THRESHOLD CALVERT REIL-OMNI

Popular Alternatives